createdAt,value
2022-07-27T00:05:08.577Z,12.45
2022-07-27T00:10:18.727Z,12.52
2022-07-27T00:15:24.857Z,12.60
2022-07-27T00:20:33.410Z,11.38
2022-07-27T00:25:39.420Z,11.77
2022-07-27T00:30:45.574Z,9.90
2022-07-27T00:35:52.535Z,8.88
2022-07-27T00:40:59.094Z,8.55
2022-07-27T00:46:05.492Z,11.13
2022-07-27T00:51:11.389Z,8.57
2022-07-27T00:56:18.537Z,10.75
2022-07-27T01:01:25.469Z,9.75
2022-07-27T01:06:31.684Z,8.02
2022-07-27T01:11:38.450Z,3.75
2022-07-27T01:16:45.974Z,6.55
2022-07-27T01:21:53.198Z,6.90
2022-07-27T01:27:00.488Z,3.20
2022-07-27T01:32:07.684Z,5.95
2022-07-27T01:37:14.199Z,5.10
2022-07-27T01:42:20.429Z,4.95
2022-07-27T01:47:28.948Z,4.75
2022-07-27T01:52:35.529Z,5.38
2022-07-27T01:57:42.479Z,6.32
2022-07-27T02:02:48.738Z,4.35
2022-07-27T02:07:55.403Z,5.82
2022-07-27T02:13:01.829Z,7.15
2022-07-27T02:18:36.142Z,8.57
2022-07-27T02:23:44.770Z,9.20
2022-07-27T02:28:51.419Z,6.18
2022-07-27T02:33:58.278Z,5.13
2022-07-27T02:39:04.293Z,7.75
2022-07-27T02:44:10.811Z,6.60
2022-07-27T02:49:18.031Z,4.30
2022-07-27T02:54:27.242Z,8.02
2022-07-27T02:59:34.274Z,5.55
2022-07-27T03:04:44.334Z,6.78
2022-07-27T03:09:52.572Z,6.45
2022-07-27T03:15:00.196Z,13.93
2022-07-27T03:20:10.631Z,14.23
2022-07-27T03:25:18.095Z,10.38
2022-07-27T03:30:24.509Z,10.40
2022-07-27T03:35:31.608Z,19.42
2022-07-27T03:40:38.218Z,18.65
2022-07-27T03:45:46.234Z,20.35
2022-07-27T03:50:52.871Z,12.98
2022-07-27T03:55:59.006Z,18.20
2022-07-27T04:01:05.680Z,20.15
2022-07-27T04:06:12.416Z,23.30
2022-07-27T04:11:19.034Z,15.40
2022-07-27T04:16:25.656Z,12.68
2022-07-27T04:21:33.750Z,24.35
2022-07-27T04:26:40.171Z,23.10
2022-07-27T04:31:46.943Z,28.58
2022-07-27T04:36:53.301Z,21.75
2022-07-27T04:41:59.306Z,17.38
2022-07-27T04:47:07.250Z,26.70
2022-07-27T04:52:18.500Z,24.13
2022-07-27T04:57:25.157Z,24.20
2022-07-27T05:02:35.294Z,24.65
2022-07-27T05:07:41.754Z,25.58
2022-07-27T05:12:50.296Z,23.13
2022-07-27T05:17:57.774Z,16.88
2022-07-27T05:23:06.336Z,25.70
2022-07-27T05:28:16.593Z,26.92
2022-07-27T05:33:23.493Z,11.02
2022-07-27T05:38:31.420Z,10.23
2022-07-27T05:43:38.036Z,23.95
2022-07-27T05:48:44.555Z,16.45
2022-07-27T05:53:51.277Z,23.55
2022-07-27T05:58:57.861Z,8.13
2022-07-27T06:04:05.154Z,21.70
2022-07-27T06:09:12.422Z,9.73
2022-07-27T06:14:19.916Z,15.40
2022-07-27T06:19:36.167Z,18.20
2022-07-27T06:24:45.338Z,13.70
2022-07-27T06:29:51.823Z,19.35
2022-07-27T06:34:58.296Z,16.25
2022-07-27T06:40:07.214Z,18.25
2022-07-27T06:45:20.776Z,16.98
2022-07-27T06:50:36.052Z,17.95
2022-07-27T06:56:00.487Z,16.70
2022-07-27T07:01:11.905Z,16.52
2022-07-27T07:06:19.939Z,14.68
2022-07-27T07:11:29.232Z,15.38
2022-07-27T07:16:40.676Z,15.45
2022-07-27T07:21:52.858Z,13.70
2022-07-27T07:26:59.830Z,13.23
2022-07-27T07:32:06.823Z,13.93
2022-07-27T07:37:16.094Z,13.25
2022-07-27T07:42:23.739Z,12.18
2022-07-27T07:47:30.427Z,12.07
2022-07-27T07:52:42.334Z,12.20
2022-07-27T07:57:50.670Z,10.05
2022-07-27T08:03:05.185Z,11.43
2022-07-27T08:08:11.717Z,11.45
2022-07-27T08:13:21.864Z,10.13
2022-07-27T08:18:37.600Z,10.07
2022-07-27T08:29:15.472Z,9.80
2022-07-27T08:34:27.414Z,10.40
2022-07-27T08:45:06.904Z,9.65
2022-07-27T08:50:29.729Z,10.88
2022-07-27T08:55:39.278Z,11.38
2022-07-27T09:00:57.165Z,10.90
2022-07-27T09:06:06.603Z,10.95
2022-07-27T09:11:18.382Z,10.48
2022-07-27T09:17:14.959Z,10.40
2022-07-27T09:22:04.938Z,11.23
2022-07-27T09:27:12.405Z,11.27
2022-07-27T09:32:19.199Z,9.35
2022-07-27T09:37:33.909Z,9.35
2022-07-27T09:43:09.213Z,10.57
2022-07-27T09:48:19.140Z,9.07
2022-07-27T09:53:42.769Z,8.10
2022-07-27T09:58:58.603Z,8.38
2022-07-27T10:04:14.793Z,9.20
2022-07-27T10:09:26.358Z,8.32
2022-07-27T10:14:33.538Z,9.20
2022-07-27T10:19:55.154Z,9.32
2022-07-27T10:25:04.795Z,9.05
2022-07-27T10:30:11.751Z,8.32
2022-07-27T10:35:37.710Z,9.65
2022-07-27T10:40:50.863Z,8.55
2022-07-27T10:46:02.494Z,8.20
2022-07-27T10:51:12.029Z,8.85
2022-07-27T10:56:48.503Z,8.75
2022-07-27T11:02:02.740Z,9.27
2022-07-27T11:07:29.697Z,8.07
2022-07-27T11:12:37.414Z,8.02
2022-07-27T11:18:00.502Z,8.68
2022-07-27T11:23:50.594Z,9.18
2022-07-27T11:28:52.229Z,8.85
2022-07-27T11:34:03.238Z,9.57
2022-07-27T11:44:58.915Z,9.07
2022-07-27T11:50:13.169Z,10.13
2022-07-27T11:55:22.444Z,12.27
2022-07-27T12:00:43.989Z,12.90
2022-07-27T12:06:03.566Z,11.85
2022-07-27T12:12:05.556Z,11.95
2022-07-27T12:17:45.211Z,10.93
2022-07-27T12:22:56.781Z,10.80
2022-07-27T12:28:21.257Z,9.35
2022-07-27T12:33:41.614Z,8.88
2022-07-27T12:38:52.687Z,11.30
2022-07-27T12:44:12.290Z,11.40
2022-07-27T12:49:26.010Z,9.95
2022-07-27T12:54:34.870Z,11.88
2022-07-27T12:59:45.543Z,13.05
2022-07-27T13:10:16.990Z,9.95
2022-07-27T13:15:29.502Z,17.73
2022-07-27T13:20:43.086Z,14.35
2022-07-27T13:26:00.349Z,16.27
2022-07-27T13:41:47.693Z,12.82
2022-07-27T13:47:04.607Z,13.35
2022-07-27T13:52:19.906Z,12.93
2022-07-27T13:57:27.932Z,10.30
2022-07-27T14:02:35.620Z,10.63
2022-07-27T14:07:47.398Z,7.97
2022-07-27T14:12:58.973Z,10.45
2022-07-27T14:18:06.679Z,11.30
2022-07-27T14:23:17.967Z,6.70
2022-07-27T14:28:28.695Z,10.52
2022-07-27T14:33:41.997Z,9.43
2022-07-27T14:38:53.208Z,8.55
2022-07-27T14:44:03.125Z,10.57
2022-07-27T14:49:37.313Z,8.30
2022-07-27T14:54:51.588Z,9.75
2022-07-27T14:59:59.464Z,9.95
2022-07-27T15:05:08.629Z,9.13
2022-07-27T15:10:17.934Z,8.13
2022-07-27T15:15:27.476Z,7.95
2022-07-27T15:20:38.651Z,8.40
2022-07-27T15:25:46.729Z,8.70
2022-07-27T15:30:56.632Z,3.13
2022-07-27T15:36:03.824Z,7.68
2022-07-27T15:41:11.520Z,7.88
2022-07-27T15:46:18.926Z,7.38
2022-07-27T15:51:36.661Z,6.97
2022-07-27T16:02:04.299Z,7.45
2022-07-27T16:07:18.260Z,7.18
2022-07-27T16:12:37.746Z,7.47
2022-07-27T16:17:51.748Z,8.27
2022-07-27T16:22:57.955Z,8.15
2022-07-27T16:28:04.385Z,7.78
2022-07-27T16:33:11.596Z,8.95
2022-07-27T16:38:17.838Z,7.38
2022-07-27T16:43:37.295Z,7.38
2022-07-27T16:48:45.339Z,7.78
2022-07-27T16:53:51.898Z,7.05
2022-07-27T16:58:58.190Z,4.43
2022-07-27T17:04:04.428Z,8.57
2022-07-27T17:09:10.734Z,8.60
2022-07-27T17:14:18.258Z,8.27
2022-07-27T17:19:24.402Z,8.52
2022-07-27T17:24:33.831Z,8.85
2022-07-27T17:29:42.394Z,6.20
2022-07-27T17:34:48.792Z,6.80
2022-07-27T17:39:54.615Z,7.55
2022-07-27T17:45:00.804Z,8.30
2022-07-27T17:50:08.820Z,7.75
2022-07-27T17:55:14.657Z,7.22
2022-07-27T18:00:20.703Z,9.80
2022-07-27T18:05:27.080Z,8.65
2022-07-27T18:10:36.722Z,9.52
2022-07-27T18:15:55.789Z,4.65
2022-07-27T18:21:03.255Z,6.90
2022-07-27T18:26:09.417Z,11.25
2022-07-27T18:31:17.599Z,9.93
2022-07-27T18:36:24.275Z,10.38
2022-07-27T18:41:30.324Z,9.73
2022-07-27T18:46:36.730Z,9.13
2022-07-27T18:51:42.818Z,9.68
2022-07-27T18:56:48.446Z,10.00
2022-07-27T19:01:54.620Z,8.80
2022-07-27T19:07:00.450Z,10.63
2022-07-27T19:12:09.740Z,10.73
2022-07-27T19:17:16.050Z,10.63
2022-07-27T19:22:24.579Z,10.48
2022-07-27T19:27:31.339Z,7.32
2022-07-27T19:32:44.186Z,10.60
2022-07-27T19:37:49.865Z,10.32
2022-07-27T19:42:56.056Z,9.32
2022-07-27T19:48:03.287Z,10.65
2022-07-27T19:53:10.449Z,11.50
2022-07-27T19:58:16.444Z,11.43
2022-07-27T20:03:23.497Z,12.02
2022-07-27T20:08:29.362Z,12.05
2022-07-27T20:13:36.297Z,12.52
2022-07-27T20:18:42.463Z,13.02
2022-07-27T20:23:48.251Z,13.20
2022-07-27T20:28:54.775Z,17.20
2022-07-27T20:34:00.931Z,15.73
2022-07-27T20:39:08.186Z,17.13
2022-07-27T20:44:15.704Z,17.70
2022-07-27T20:49:22.143Z,15.77
2022-07-27T20:54:29.323Z,15.27
2022-07-27T20:59:35.378Z,16.00
2022-07-27T21:04:41.219Z,18.52
2022-07-27T21:09:48.142Z,17.65
2022-07-27T21:14:54.413Z,16.85
2022-07-27T21:20:00.340Z,16.60
2022-07-27T21:25:06.449Z,17.42
2022-07-27T21:30:13.254Z,18.13
2022-07-27T21:35:18.904Z,16.10
2022-07-27T21:40:25.095Z,17.88
2022-07-27T21:45:30.811Z,15.68
2022-07-27T21:50:36.880Z,17.58
2022-07-27T21:55:43.001Z,15.63
2022-07-27T22:00:48.994Z,17.33
2022-07-27T22:05:54.764Z,17.23
2022-07-27T22:11:00.948Z,42.28
2022-07-27T22:16:07.777Z,44.38
2022-07-27T22:21:13.493Z,25.67
2022-07-27T22:26:19.228Z,28.17
2022-07-27T22:31:25.568Z,21.30
2022-07-27T22:36:31.644Z,16.13
2022-07-27T22:41:37.389Z,15.65
2022-07-27T22:46:43.463Z,16.45
2022-07-27T22:51:52.717Z,18.67
2022-07-27T22:57:00.558Z,20.52
2022-07-27T23:02:07.860Z,20.00
2022-07-27T23:07:13.797Z,18.17
2022-07-27T23:12:20.293Z,19.20
2022-07-27T23:17:26.155Z,17.17
2022-07-27T23:22:32.088Z,18.98
2022-07-27T23:27:40.753Z,16.80
2022-07-27T23:32:47.030Z,16.25
2022-07-27T23:37:53.719Z,16.55
2022-07-27T23:43:00.152Z,14.95
2022-07-27T23:48:06.652Z,14.77
2022-07-27T23:53:13.269Z,13.65
2022-07-27T23:58:19.546Z,13.70
